createdAt,value
2023-05-22T00:00:02.489Z,25.00
2023-05-22T00:01:02.472Z,25.00
2023-05-22T00:02:02.499Z,25.00
2023-05-22T00:03:02.533Z,9.97
2023-05-22T00:04:02.421Z,0.00
2023-05-22T00:05:02.477Z,0.00
2023-05-22T00:06:02.367Z,0.00
2023-05-22T00:07:02.372Z,0.00
2023-05-22T00:08:02.338Z,45.61
2023-05-22T00:09:02.317Z,120.19
2023-05-22T00:10:02.297Z,238.27
2023-05-22T00:11:02.278Z,293.99
2023-05-22T00:12:02.299Z,307.24
2023-05-22T00:13:02.250Z,284.54
2023-05-22T00:14:02.266Z,241.13
2023-05-22T00:15:02.241Z,183.41
2023-05-22T00:16:02.214Z,153.07
2023-05-22T00:17:02.371Z,124.81
2023-05-22T00:18:02.250Z,88.02
2023-05-22T00:19:02.245Z,59.72
2023-05-22T00:20:02.201Z,36.97
2023-05-22T00:21:02.191Z,25.00
2023-05-22T00:22:02.194Z,29.88
2023-05-22T00:23:02.154Z,28.16
2023-05-22T00:24:02.146Z,19.85
2023-05-22T00:25:02.131Z,32.51
2023-05-22T00:26:02.121Z,0.00
2023-05-22T00:27:02.134Z,0.00
2023-05-22T00:28:02.183Z,0.00
2023-05-22T00:29:02.243Z,9.47
2023-05-22T00:30:02.391Z,11.44
2023-05-22T00:31:02.329Z,22.75
2023-05-22T00:32:02.361Z,28.77
2023-05-22T00:33:02.492Z,34.29
2023-05-22T00:34:02.534Z,31.81
2023-05-22T00:35:02.475Z,36.30
2023-05-22T00:36:02.518Z,55.42
2023-05-22T00:37:02.584Z,79.52
2023-05-22T00:38:02.609Z,116.26
2023-05-22T00:39:02.653Z,158.21
2023-05-22T00:40:02.727Z,206.22
2023-05-22T00:41:02.769Z,240.61
2023-05-22T00:42:02.810Z,257.05
2023-05-22T00:43:02.824Z,256.70
2023-05-22T00:44:02.856Z,252.62
2023-05-22T00:45:02.895Z,248.82
2023-05-22T00:46:02.975Z,235.04
2023-05-22T00:47:03.036Z,214.56
2023-05-22T00:48:03.097Z,184.11
2023-05-22T00:49:03.057Z,157.95
2023-05-22T00:50:03.117Z,150.27
2023-05-22T00:51:03.154Z,154.36
2023-05-22T00:52:03.270Z,162.16
2023-05-22T00:53:03.253Z,175.68
2023-05-22T00:54:03.279Z,190.99
2023-05-22T00:55:03.382Z,209.02
2023-05-22T00:56:03.379Z,224.42
2023-05-22T00:57:03.437Z,233.42
2023-05-22T00:58:03.494Z,243.17
2023-05-22T00:59:03.536Z,250.13
2023-05-22T01:00:03.587Z,250.91
2023-05-22T01:01:03.642Z,250.43
2023-05-22T01:02:03.872Z,249.12
2023-05-22T01:03:03.833Z,249.82
2023-05-22T01:04:03.933Z,249.54
2023-05-22T01:05:03.890Z,249.65
2023-05-22T01:06:03.932Z,249.12
2023-05-22T01:07:03.996Z,244.97
2023-05-22T01:08:04.090Z,235.52
2023-05-22T01:09:04.078Z,219.38
2023-05-22T01:10:04.145Z,210.75
2023-05-22T01:11:04.192Z,177.55
2023-05-22T01:12:04.219Z,164.76
2023-05-22T01:13:04.297Z,158.16
2023-05-22T01:14:04.335Z,163.04
2023-05-22T01:15:04.385Z,144.85
2023-05-22T01:16:04.473Z,131.15
2023-05-22T01:17:04.485Z,131.80
2023-05-22T01:18:04.620Z,137.23
2023-05-22T01:19:04.658Z,136.32
2023-05-22T01:20:04.632Z,129.61
2023-05-22T01:21:04.701Z,136.65
2023-05-22T01:22:04.759Z,147.59
2023-05-22T01:23:04.803Z,168.65
2023-05-22T01:24:04.859Z,195.74
2023-05-22T01:25:04.931Z,215.79
2023-05-22T01:26:04.990Z,231.10
2023-05-22T01:27:05.015Z,241.33
2023-05-22T01:28:05.099Z,249.33
2023-05-22T01:29:05.139Z,249.39
2023-05-22T01:30:05.220Z,245.35
2023-05-22T01:31:05.264Z,240.70
2023-05-22T01:32:05.334Z,234.99
2023-05-22T01:33:05.435Z,224.66
2023-05-22T01:34:05.495Z,209.91
2023-05-22T01:35:05.430Z,197.48
2023-05-22T01:36:05.451Z,191.48
2023-05-22T01:37:05.474Z,184.74
2023-05-22T01:38:05.480Z,187.01
2023-05-22T01:39:05.525Z,197.46
2023-05-22T01:40:05.527Z,204.42
2023-05-22T01:41:05.535Z,210.63
2023-05-22T01:42:05.548Z,215.90
2023-05-22T01:43:05.577Z,218.49
2023-05-22T01:44:05.619Z,219.37
2023-05-22T01:45:05.615Z,222.04
2023-05-22T01:46:05.666Z,222.61
2023-05-22T01:47:05.703Z,227.13
2023-05-22T01:48:05.759Z,230.19
2023-05-22T01:49:05.727Z,237.51
2023-05-22T01:50:05.885Z,243.66
2023-05-22T01:51:05.769Z,248.94
2023-05-22T01:52:05.826Z,250.61
2023-05-22T01:53:05.851Z,250.30
2023-05-22T01:54:05.878Z,249.72
2023-05-22T01:55:05.898Z,242.07
2023-05-22T01:56:05.927Z,233.01
2023-05-22T01:57:05.952Z,227.59
2023-05-22T01:58:05.947Z,216.80
2023-05-22T01:59:05.967Z,209.87
2023-05-22T02:00:05.972Z,212.80
2023-05-22T02:01:06.024Z,184.73
2023-05-22T02:02:06.070Z,177.20
2023-05-22T02:03:06.108Z,146.37
2023-05-22T02:04:06.022Z,132.02
2023-05-22T02:05:06.047Z,124.43
2023-05-22T02:06:06.069Z,106.55
2023-05-22T02:07:06.036Z,101.20
2023-05-22T02:08:06.053Z,103.22
2023-05-22T02:09:06.063Z,100.18
2023-05-22T02:10:06.093Z,100.63
2023-05-22T02:11:06.094Z,99.70
2023-05-22T02:12:06.089Z,95.86
2023-05-22T02:13:06.098Z,99.49
2023-05-22T02:14:06.093Z,84.28
2023-05-22T02:15:06.106Z,92.04
2023-05-22T02:16:06.141Z,89.39
2023-05-22T02:17:06.122Z,88.23
2023-05-22T02:18:06.195Z,93.79
2023-05-22T02:19:06.194Z,91.63
2023-05-22T02:20:06.108Z,103.60
2023-05-22T02:21:06.128Z,121.41
2023-05-22T02:22:06.162Z,146.30
2023-05-22T02:23:06.171Z,177.25
2023-05-22T02:24:06.166Z,194.00
2023-05-22T02:25:06.187Z,211.04
2023-05-22T02:26:06.186Z,227.04
2023-05-22T02:27:06.202Z,240.52
2023-05-22T02:28:06.254Z,251.02
2023-05-22T02:29:06.247Z,251.14
2023-05-22T02:30:06.261Z,250.11
2023-05-22T02:31:06.305Z,250.00
2023-05-22T02:32:06.310Z,250.00
2023-05-22T02:33:06.458Z,250.00
2023-05-22T02:34:06.348Z,249.48
2023-05-22T02:35:06.362Z,249.00
2023-05-22T02:36:06.436Z,249.86
2023-05-22T02:37:06.408Z,250.00
2023-05-22T02:38:06.453Z,249.25
2023-05-22T02:39:06.435Z,249.29
2023-05-22T02:40:06.577Z,249.57
2023-05-22T02:41:06.534Z,247.09
2023-05-22T02:42:06.544Z,244.04
2023-05-22T02:43:06.582Z,241.85
2023-05-22T02:44:06.614Z,238.88
2023-05-22T02:45:06.640Z,234.86
2023-05-22T02:46:06.725Z,234.47
2023-05-22T02:47:06.773Z,234.37
2023-05-22T02:48:06.874Z,233.99
2023-05-22T02:49:06.851Z,235.31
2023-05-22T02:50:06.883Z,234.75
2023-05-22T02:51:06.908Z,232.76
2023-05-22T02:52:06.938Z,228.59
2023-05-22T02:53:06.981Z,226.48
2023-05-22T02:54:07.044Z,224.49
2023-05-22T02:55:07.037Z,225.23
2023-05-22T02:56:07.049Z,223.16
2023-05-22T02:57:07.071Z,215.31
2023-05-22T02:58:07.092Z,183.08
2023-05-22T02:59:07.079Z,132.13
2023-05-22T03:00:07.094Z,145.53
2023-05-22T03:01:07.111Z,114.44
2023-05-22T03:02:07.152Z,88.19
2023-05-22T03:03:07.176Z,82.44
2023-05-22T03:04:07.217Z,74.55
2023-05-22T03:05:07.108Z,72.84
2023-05-22T03:06:07.098Z,52.77
2023-05-22T03:07:07.096Z,51.30
2023-05-22T03:08:07.085Z,55.93
2023-05-22T03:09:07.091Z,71.38
2023-05-22T03:10:07.146Z,76.45
2023-05-22T03:11:07.113Z,89.45
2023-05-22T03:12:07.137Z,106.96
2023-05-22T03:13:07.187Z,123.58
2023-05-22T03:14:07.218Z,135.88
2023-05-22T03:15:07.267Z,148.25
2023-05-22T03:16:07.328Z,156.04
2023-05-22T03:17:07.365Z,164.74
2023-05-22T03:18:07.429Z,172.10
2023-05-22T03:19:07.502Z,177.09
2023-05-22T03:20:07.548Z,178.15
2023-05-22T03:21:07.541Z,182.24
2023-05-22T03:22:07.587Z,187.19
2023-05-22T03:23:07.630Z,191.03
2023-05-22T03:24:07.695Z,195.59
2023-05-22T03:25:07.712Z,200.42
2023-05-22T03:26:07.806Z,203.23
2023-05-22T03:27:07.841Z,204.86
2023-05-22T03:28:07.871Z,206.71
2023-05-22T03:29:07.964Z,206.00
2023-05-22T03:30:08.002Z,195.89
2023-05-22T03:31:08.028Z,190.09
2023-05-22T03:32:08.104Z,185.09
2023-05-22T03:33:08.226Z,181.18
2023-05-22T03:34:08.325Z,178.21
2023-05-22T03:35:08.300Z,182.88
2023-05-22T03:36:08.352Z,185.60
2023-05-22T03:37:08.396Z,191.28
2023-05-22T03:38:08.468Z,197.38
2023-05-22T03:39:08.529Z,205.82
2023-05-22T03:40:08.596Z,211.65
2023-05-22T03:41:08.671Z,216.21
2023-05-22T03:42:08.690Z,217.50
2023-05-22T03:43:08.712Z,218.45
2023-05-22T03:44:08.766Z,219.27
2023-05-22T03:45:08.813Z,224.97
2023-05-22T03:46:08.950Z,227.23
2023-05-22T03:47:08.861Z,227.78
2023-05-22T03:48:08.935Z,221.29
2023-05-22T03:49:08.888Z,204.17
2023-05-22T03:50:08.897Z,204.39
2023-05-22T03:51:08.917Z,187.72
2023-05-22T03:52:08.921Z,163.10
2023-05-22T03:53:08.963Z,143.47
2023-05-22T03:54:08.974Z,131.68
2023-05-22T03:55:08.972Z,128.35
2023-05-22T03:56:08.990Z,114.99
2023-05-22T03:57:08.995Z,117.46
2023-05-22T03:58:09.027Z,123.13
2023-05-22T03:59:09.035Z,119.11
2023-05-22T04:00:09.077Z,110.23
2023-05-22T04:01:09.104Z,105.79
2023-05-22T04:02:09.126Z,110.31
2023-05-22T04:03:09.224Z,119.89
2023-05-22T04:04:09.237Z,123.22
2023-05-22T04:05:09.259Z,117.80
2023-05-22T04:06:09.283Z,120.40
2023-05-22T04:07:09.332Z,114.81
2023-05-22T04:08:09.413Z,99.29
2023-05-22T04:09:09.461Z,97.29
2023-05-22T04:10:09.526Z,100.00
2023-05-22T04:11:09.605Z,102.05
2023-05-22T04:12:09.662Z,93.99
2023-05-22T04:13:09.731Z,94.00
2023-05-22T04:14:09.827Z,100.53
2023-05-22T04:15:09.849Z,105.34
2023-05-22T04:16:09.930Z,110.24
2023-05-22T04:17:09.917Z,96.23
2023-05-22T04:18:10.019Z,101.01
2023-05-22T04:19:10.046Z,86.68
2023-05-22T04:20:10.034Z,67.76
2023-05-22T04:21:10.080Z,51.08
2023-05-22T04:22:10.152Z,47.24
2023-05-22T04:23:10.068Z,44.76
2023-05-22T04:24:10.040Z,34.60
2023-05-22T04:25:10.019Z,19.93
2023-05-22T04:26:10.040Z,19.90
2023-05-22T04:27:10.080Z,25.00
2023-05-22T04:28:10.013Z,25.88
2023-05-22T04:29:09.978Z,32.84
2023-05-22T04:30:09.956Z,26.96
2023-05-22T04:31:09.995Z,24.76
2023-05-22T04:32:09.915Z,24.90
2023-05-22T04:33:09.950Z,29.41
2023-05-22T04:34:09.890Z,32.23
2023-05-22T04:35:09.867Z,36.17
2023-05-22T04:36:12.356Z,46.17
2023-05-22T04:37:09.795Z,64.82
2023-05-22T04:38:09.735Z,105.69
2023-05-22T04:39:09.674Z,151.81
2023-05-22T04:40:09.626Z,193.55
2023-05-22T04:41:09.603Z,228.85
2023-05-22T04:42:09.530Z,247.46
2023-05-22T04:43:09.487Z,254.59
2023-05-22T04:44:09.424Z,256.71
2023-05-22T04:45:09.354Z,259.94
2023-05-22T04:46:09.408Z,260.39
2023-05-22T04:47:09.340Z,252.64
2023-05-22T04:48:09.561Z,239.72
2023-05-22T04:49:09.111Z,240.71
2023-05-22T04:50:09.062Z,238.23
2023-05-22T04:51:09.034Z,243.00
2023-05-22T04:52:08.989Z,249.69
2023-05-22T04:53:08.932Z,252.17
2023-05-22T04:54:08.842Z,248.11
2023-05-22T04:55:08.799Z,250.00
2023-05-22T04:56:08.775Z,250.12
2023-05-22T04:57:08.683Z,250.00
2023-05-22T04:58:08.642Z,250.00
2023-05-22T04:59:08.569Z,249.46
2023-05-22T05:00:08.519Z,249.09
2023-05-22T05:01:08.460Z,243.37
2023-05-22T05:02:08.497Z,238.60
2023-05-22T05:03:08.577Z,215.84
2023-05-22T05:04:08.356Z,185.67
2023-05-22T05:05:08.219Z,152.95
2023-05-22T05:06:08.116Z,129.61
2023-05-22T05:07:08.042Z,123.66
2023-05-22T05:08:07.971Z,105.22
2023-05-22T05:09:07.902Z,80.09
2023-05-22T05:10:07.850Z,74.68
2023-05-22T05:11:07.752Z,69.46
2023-05-22T05:12:07.738Z,75.27
2023-05-22T05:13:07.592Z,82.03
2023-05-22T05:14:07.604Z,78.41
2023-05-22T05:15:07.440Z,77.35
2023-05-22T05:16:07.386Z,73.36
2023-05-22T05:17:07.286Z,78.55
2023-05-22T05:18:07.441Z,84.62
2023-05-22T05:19:07.202Z,86.45
2023-05-22T05:20:07.078Z,84.41
2023-05-22T05:21:07.013Z,83.34
2023-05-22T05:22:06.921Z,86.91
2023-05-22T05:23:07.085Z,100.47
2023-05-22T05:24:06.862Z,104.70
2023-05-22T05:25:06.792Z,100.10
2023-05-22T05:26:06.732Z,104.02
2023-05-22T05:27:06.720Z,110.85
2023-05-22T05:28:06.679Z,100.83
2023-05-22T05:29:06.663Z,92.51
2023-05-22T05:30:06.666Z,88.81
2023-05-22T05:31:07.168Z,86.75
2023-05-22T05:32:06.680Z,87.91
2023-05-22T05:33:07.162Z,92.99
2023-05-22T05:34:06.601Z,97.35
2023-05-22T05:35:06.532Z,96.79
2023-05-22T05:36:06.524Z,101.53
2023-05-22T05:37:06.496Z,103.65
2023-05-22T05:38:06.456Z,99.59
2023-05-22T05:39:06.472Z,95.04
2023-05-22T05:40:06.433Z,97.56
2023-05-22T05:41:06.407Z,89.15
2023-05-22T05:42:06.420Z,86.00
2023-05-22T05:43:08.052Z,87.22
2023-05-22T05:44:06.297Z,95.00
2023-05-22T05:45:06.583Z,97.27
2023-05-22T05:46:06.205Z,100.12
2023-05-22T05:47:06.086Z,96.93
2023-05-22T05:48:13.526Z,87.50
2023-05-22T05:49:05.970Z,87.59
2023-05-22T05:50:06.211Z,89.11
2023-05-22T05:51:05.807Z,93.65
2023-05-22T05:52:05.747Z,101.95
2023-05-22T05:53:06.111Z,117.23
2023-05-22T05:54:05.622Z,119.87
2023-05-22T05:55:05.552Z,116.99
2023-05-22T05:56:05.625Z,119.70
2023-05-22T05:57:05.449Z,121.86
2023-05-22T05:58:05.417Z,123.72
2023-05-22T05:59:05.349Z,124.14
2023-05-22T06:00:20.856Z,131.90
2023-05-22T06:01:07.329Z,132.12
2023-05-22T06:02:20.855Z,132.32
2023-05-22T06:03:06.105Z,132.31
2023-05-22T06:04:20.595Z,132.32
2023-05-22T06:06:20.605Z,132.20
2023-05-22T06:07:04.812Z,132.41
2023-05-22T06:09:08.121Z,132.57
2023-05-22T06:10:12.852Z,132.89
2023-05-22T06:11:20.393Z,132.96
2023-05-22T06:12:07.673Z,132.82
2023-05-22T06:13:04.400Z,132.99
2023-05-22T06:14:04.424Z,135.92
2023-05-22T06:15:11.998Z,141.97
2023-05-22T06:16:19.893Z,132.77
2023-05-22T06:17:04.629Z,132.62
2023-05-22T06:18:04.226Z,132.68
2023-05-22T06:19:05.157Z,134.38
2023-05-22T06:20:04.062Z,134.83
2023-05-22T06:21:05.979Z,141.02
2023-05-22T06:22:04.208Z,153.59
2023-05-22T06:23:03.683Z,156.59
2023-05-22T06:24:03.626Z,162.25
2023-05-22T06:25:03.552Z,164.35
2023-05-22T06:26:03.478Z,162.44
2023-05-22T06:27:03.624Z,165.79
2023-05-22T06:28:03.346Z,159.63
2023-05-22T06:29:03.276Z,162.24
2023-05-22T06:30:04.590Z,163.02
2023-05-22T06:31:03.367Z,156.92
2023-05-22T06:32:03.666Z,154.20
2023-05-22T06:33:03.388Z,144.81
2023-05-22T06:34:03.369Z,136.70
2023-05-22T06:35:03.456Z,133.12
2023-05-22T06:36:03.304Z,116.32
2023-05-22T06:37:03.775Z,95.52
2023-05-22T06:38:03.460Z,90.37
2023-05-22T06:39:03.261Z,88.43
2023-05-22T06:40:10.620Z,91.26
2023-05-22T06:41:03.136Z,80.27
2023-05-22T06:42:03.552Z,77.21
2023-05-22T06:43:03.007Z,75.68
2023-05-22T06:44:06.115Z,59.71
2023-05-22T06:45:02.862Z,49.53
2023-05-22T06:46:02.815Z,40.10
2023-05-22T06:47:02.708Z,31.78
2023-05-22T06:48:06.387Z,37.46
2023-05-22T06:49:03.581Z,40.37
2023-05-22T06:50:02.935Z,48.45
2023-05-22T06:51:02.425Z,45.94
2023-05-22T06:52:05.216Z,36.91
2023-05-22T06:53:05.471Z,45.39
2023-05-22T06:54:02.267Z,43.60
2023-05-22T06:55:04.289Z,50.39
2023-05-22T06:56:04.107Z,65.04
2023-05-22T06:57:02.205Z,55.68
2023-05-22T06:58:02.768Z,41.64
2023-05-22T06:59:00.934Z,41.73
2023-05-22T07:00:02.355Z,40.99
2023-05-22T07:01:01.983Z,34.00
2023-05-22T07:02:01.577Z,32.93
2023-05-22T07:03:01.728Z,30.51
2023-05-22T07:04:01.445Z,32.01
2023-05-22T07:05:02.661Z,14.42
2023-05-22T07:06:01.257Z,17.99
2023-05-22T07:07:01.183Z,11.85
2023-05-22T07:08:01.149Z,25.40
2023-05-22T07:09:01.188Z,38.40
2023-05-22T07:10:01.430Z,33.26
2023-05-22T07:11:02.332Z,19.93
2023-05-22T07:12:00.783Z,30.50
2023-05-22T07:13:01.170Z,42.77
2023-05-22T07:14:00.587Z,27.18
2023-05-22T07:15:00.522Z,25.09
2023-05-22T07:16:00.515Z,29.52
2023-05-22T07:17:01.572Z,35.63
2023-05-22T07:18:00.427Z,39.75
2023-05-22T07:19:00.301Z,63.04
2023-05-22T07:20:00.227Z,74.67
2023-05-22T07:21:00.168Z,73.22
2023-05-22T07:22:00.183Z,32.12
2023-05-22T07:23:00.161Z,3.93
2023-05-22T07:23:59.971Z,0.00
2023-05-22T07:24:59.935Z,0.00
2023-05-22T07:26:03.342Z,0.96
2023-05-22T07:26:59.834Z,1.14
2023-05-22T07:28:01.123Z,0.00
2023-05-22T07:28:59.641Z,0.00
2023-05-22T07:29:59.548Z,0.00
2023-05-22T07:31:00.455Z,2.14
2023-05-22T07:31:59.469Z,21.14
2023-05-22T07:32:59.699Z,28.96
2023-05-22T07:34:00.129Z,37.14
2023-05-22T07:34:59.329Z,44.19
2023-05-22T07:35:59.284Z,47.78
2023-05-22T07:37:02.455Z,49.09
2023-05-22T07:37:59.372Z,49.13
2023-05-22T07:39:02.289Z,50.58
2023-05-22T07:39:59.895Z,42.85
2023-05-22T07:40:58.793Z,27.28
2023-05-22T07:42:30.743Z,28.34
2023-05-22T07:42:59.366Z,18.98
2023-05-22T07:44:06.042Z,10.00
2023-05-22T07:45:00.491Z,0.00
2023-05-22T07:45:59.829Z,0.00
2023-05-22T07:47:05.771Z,0.00
2023-05-22T07:47:58.669Z,0.00
2023-05-22T07:49:01.332Z,18.14
2023-05-22T07:49:58.505Z,0.56
2023-05-22T07:50:57.930Z,8.09
2023-05-22T07:52:05.188Z,6.92
2023-05-22T07:53:00.873Z,0.00
2023-05-22T07:54:04.958Z,0.00
2023-05-22T07:54:57.648Z,0.00
2023-05-22T07:56:00.497Z,0.00
2023-05-22T07:56:57.193Z,0.00
2023-05-22T07:57:57.389Z,0.00
2023-05-22T07:58:57.157Z,0.00
2023-05-22T07:59:56.875Z,0.00
2023-05-22T08:00:56.693Z,0.00
2023-05-22T08:01:58.160Z,0.00
2023-05-22T08:02:56.766Z,0.00
2023-05-22T08:03:56.922Z,0.00
2023-05-22T08:04:56.697Z,0.00
2023-05-22T08:05:56.058Z,0.00
2023-05-22T08:06:55.943Z,0.00
2023-05-22T08:07:55.804Z,0.00
2023-05-22T08:08:56.146Z,0.00
2023-05-22T08:09:55.540Z,0.00
2023-05-22T08:11:04.159Z,0.00
2023-05-22T08:11:55.279Z,0.00
2023-05-22T08:12:55.154Z,0.00
2023-05-22T08:13:55.164Z,0.00
2023-05-22T08:14:55.067Z,0.00
2023-05-22T08:16:00.288Z,0.00
2023-05-22T08:16:54.686Z,0.00
2023-05-22T08:17:54.493Z,0.00
2023-05-22T08:18:54.698Z,0.00
2023-05-22T08:19:54.233Z,0.00
2023-05-22T08:20:54.963Z,0.00
2023-05-22T08:21:53.924Z,0.00
2023-05-22T08:22:54.692Z,0.00
2023-05-22T08:23:53.639Z,0.00
2023-05-22T08:24:53.426Z,0.00
2023-05-22T08:25:53.331Z,0.00
2023-05-22T08:26:53.146Z,0.00
2023-05-22T08:27:52.996Z,0.00
2023-05-22T08:28:53.145Z,0.00
2023-05-22T08:29:52.855Z,0.00
2023-05-22T08:30:52.528Z,0.00
2023-05-22T08:31:52.487Z,0.00
2023-05-22T08:32:52.668Z,0.00
2023-05-22T08:33:52.184Z,0.00
2023-05-22T08:34:51.882Z,0.00
2023-05-22T08:35:51.705Z,0.00
2023-05-22T08:36:51.583Z,0.00
2023-05-22T08:37:51.413Z,0.00
2023-05-22T08:38:51.675Z,0.00
2023-05-22T08:39:58.583Z,0.00
2023-05-22T08:40:51.212Z,0.00
2023-05-22T08:41:49.837Z,0.00
2023-05-22T08:42:51.660Z,0.00
2023-05-22T08:43:50.659Z,0.00
2023-05-22T08:44:50.316Z,0.00
2023-05-22T08:45:50.310Z,0.00
2023-05-22T08:46:49.983Z,0.00
2023-05-22T08:47:50.151Z,0.61
2023-05-22T08:48:49.633Z,8.17
2023-05-22T08:49:49.453Z,16.75
2023-05-22T08:50:49.325Z,19.13
2023-05-22T08:51:49.168Z,34.28
2023-05-22T08:52:49.169Z,26.80
2023-05-22T08:53:48.890Z,15.95
2023-05-22T08:54:48.717Z,14.08
2023-05-22T08:55:48.560Z,13.07
2023-05-22T08:56:56.283Z,9.68
2023-05-22T08:57:48.654Z,0.00
2023-05-22T08:58:48.038Z,0.00
2023-05-22T08:59:47.862Z,0.00
2023-05-22T09:00:47.719Z,0.00
2023-05-22T09:01:47.582Z,0.00
2023-05-22T09:02:47.701Z,0.00
2023-05-22T09:03:47.678Z,0.13
2023-05-22T09:04:46.972Z,7.04
2023-05-22T09:05:46.770Z,8.29
2023-05-22T09:06:46.660Z,7.62
2023-05-22T09:07:46.661Z,2.59
2023-05-22T09:08:46.224Z,0.00
2023-05-22T09:09:46.174Z,0.00
2023-05-22T09:10:45.854Z,0.00
2023-05-22T09:11:46.162Z,1.77
2023-05-22T09:12:45.484Z,19.77
2023-05-22T09:13:45.302Z,25.67
2023-05-22T09:14:45.112Z,21.21
2023-05-22T09:15:44.923Z,21.47
2023-05-22T09:16:44.768Z,20.71
2023-05-22T09:17:44.623Z,21.91
2023-05-22T09:18:44.413Z,21.57
2023-05-22T09:19:44.121Z,24.05
2023-05-22T09:20:44.162Z,32.84
2023-05-22T09:21:44.250Z,25.85
2023-05-22T09:22:43.553Z,25.16
2023-05-22T09:23:43.344Z,34.07
2023-05-22T09:24:43.241Z,24.86
2023-05-22T09:25:43.109Z,23.88
2023-05-22T09:26:43.313Z,24.00
2023-05-22T09:27:43.658Z,24.07
2023-05-22T09:28:42.667Z,28.75
2023-05-22T09:29:42.223Z,28.69
2023-05-22T09:30:42.439Z,30.30
2023-05-22T09:31:45.332Z,31.93
2023-05-22T09:32:41.768Z,28.35
2023-05-22T09:33:41.691Z,22.69
2023-05-22T09:35:13.038Z,30.62
2023-05-22T09:35:44.379Z,31.96
2023-05-22T09:36:40.852Z,31.10
2023-05-22T09:37:40.619Z,31.30
2023-05-22T09:38:40.451Z,29.90
2023-05-22T09:39:40.247Z,33.50
2023-05-22T09:40:40.441Z,42.66
2023-05-22T09:41:43.009Z,42.45
2023-05-22T09:42:39.619Z,32.95
2023-05-22T09:43:39.685Z,28.59
2023-05-22T09:44:39.220Z,42.08
2023-05-22T09:45:42.226Z,41.01
2023-05-22T09:46:39.303Z,25.81
2023-05-22T09:47:38.710Z,22.89
2023-05-22T09:48:38.453Z,25.55
2023-05-22T09:49:38.292Z,29.26
2023-05-22T09:50:38.236Z,31.19
2023-05-22T09:51:37.887Z,36.91
2023-05-22T09:52:37.652Z,30.20
2023-05-22T09:53:37.682Z,19.77
2023-05-22T09:54:37.269Z,17.03
2023-05-22T09:55:37.060Z,18.71
2023-05-22T09:56:39.874Z,19.54
2023-05-22T09:57:36.935Z,16.48
2023-05-22T09:58:36.491Z,12.70
2023-05-22T09:59:36.316Z,12.84
2023-05-22T10:00:36.073Z,15.94
2023-05-22T10:01:35.972Z,17.09
2023-05-22T10:02:35.756Z,16.13
2023-05-22T10:03:35.686Z,20.54
2023-05-22T10:04:35.353Z,19.29
2023-05-22T10:05:35.193Z,31.36
2023-05-22T10:06:34.929Z,56.14
2023-05-22T10:07:34.734Z,46.00
2023-05-22T10:08:34.701Z,31.74
2023-05-22T10:09:34.776Z,31.07
2023-05-22T10:10:34.194Z,25.64
2023-05-22T10:11:34.019Z,25.20
2023-05-22T10:12:33.790Z,26.00
2023-05-22T10:13:33.686Z,27.18
2023-05-22T10:14:33.784Z,33.03
2023-05-22T10:15:33.249Z,45.37
2023-05-22T10:16:33.103Z,39.39
2023-05-22T10:17:32.883Z,36.14
2023-05-22T10:18:33.694Z,24.86
2023-05-22T10:19:32.509Z,27.36
2023-05-22T10:20:32.287Z,35.71
2023-05-22T10:21:32.258Z,40.12
2023-05-22T10:22:32.005Z,46.98
2023-05-22T10:23:32.195Z,43.55
2023-05-22T10:24:31.779Z,46.50
2023-05-22T10:25:31.705Z,56.88
2023-05-22T10:26:31.286Z,51.07
2023-05-22T10:27:31.089Z,53.09
2023-05-22T10:28:31.212Z,61.20
2023-05-22T10:29:30.759Z,51.58
2023-05-22T10:30:30.580Z,56.88
2023-05-22T10:31:30.383Z,61.22
2023-05-22T10:32:30.728Z,54.91
2023-05-22T10:33:30.059Z,57.36
2023-05-22T10:34:29.830Z,54.17
2023-05-22T10:35:29.624Z,41.27
2023-05-22T10:36:29.431Z,38.07
2023-05-22T10:37:29.403Z,45.17
2023-05-22T10:38:29.202Z,53.01
2023-05-22T10:39:28.937Z,39.67
2023-05-22T10:40:29.334Z,32.04
2023-05-22T10:41:28.560Z,37.62
2023-05-22T10:42:28.346Z,44.65
2023-05-22T10:43:28.177Z,43.71
2023-05-22T10:44:28.025Z,36.39
2023-05-22T10:45:27.907Z,32.86
2023-05-22T10:46:27.749Z,41.50
2023-05-22T10:47:27.531Z,37.62
2023-05-22T10:48:27.721Z,33.94
2023-05-22T10:49:27.214Z,40.59
2023-05-22T10:50:27.020Z,32.50
2023-05-22T10:51:26.829Z,33.72
2023-05-22T10:52:26.663Z,32.23
2023-05-22T10:53:26.846Z,27.70
2023-05-22T10:54:26.376Z,28.13
2023-05-22T10:55:26.233Z,36.29
2023-05-22T10:56:26.099Z,38.73
2023-05-22T10:57:25.989Z,35.20
2023-05-22T10:58:26.210Z,39.40
2023-05-22T10:59:26.644Z,45.48
2023-05-22T11:00:25.474Z,19.38
2023-05-22T11:01:25.275Z,16.34
2023-05-22T11:02:40.794Z,20.97
2023-05-22T11:03:25.273Z,17.57
2023-05-22T11:04:25.263Z,8.93
2023-05-22T11:05:24.561Z,7.46
2023-05-22T11:06:25.361Z,9.23
2023-05-22T11:07:24.199Z,4.77
2023-05-22T11:08:24.218Z,6.82
2023-05-22T11:10:23.776Z,7.51
2023-05-22T11:11:23.518Z,8.85
2023-05-22T11:12:23.320Z,9.75
2023-05-22T11:13:23.237Z,14.76
2023-05-22T11:14:23.223Z,21.03
2023-05-22T11:15:22.788Z,14.76
2023-05-22T11:16:22.721Z,14.87
2023-05-22T11:17:22.447Z,18.04
2023-05-22T11:18:22.304Z,20.49
2023-05-22T11:19:24.048Z,18.99
2023-05-22T11:20:21.939Z,19.12
2023-05-22T11:21:21.791Z,19.12
2023-05-22T11:22:21.595Z,19.50
2023-05-22T11:23:21.741Z,22.04
2023-05-22T11:24:21.756Z,28.66
2023-05-22T11:25:21.076Z,29.36
2023-05-22T11:26:21.041Z,38.62
2023-05-22T11:27:20.703Z,41.38
2023-05-22T11:28:21.507Z,25.90
2023-05-22T11:29:21.050Z,26.87
2023-05-22T11:30:20.166Z,27.58
2023-05-22T11:31:20.051Z,58.84
2023-05-22T11:32:19.806Z,62.82
2023-05-22T11:33:19.751Z,36.31
2023-05-22T11:34:19.504Z,41.35
2023-05-22T11:35:19.274Z,37.43
2023-05-22T11:36:19.075Z,41.95
2023-05-22T11:37:18.915Z,33.46
2023-05-22T11:38:18.742Z,31.76
2023-05-22T11:39:18.532Z,39.86
2023-05-22T11:40:18.351Z,44.17
2023-05-22T11:41:18.165Z,32.18
2023-05-22T11:42:18.102Z,26.18
2023-05-22T11:43:17.802Z,24.42
2023-05-22T11:44:17.636Z,25.65
2023-05-22T11:45:17.411Z,27.20
2023-05-22T11:46:17.274Z,32.25
2023-05-22T11:47:17.053Z,31.31
2023-05-22T11:48:16.955Z,45.86
2023-05-22T11:49:16.759Z,32.34
2023-05-22T11:50:22.498Z,32.04
2023-05-22T11:51:16.418Z,30.50
2023-05-22T11:52:16.157Z,19.31
2023-05-22T11:53:16.029Z,16.74
2023-05-22T11:54:15.842Z,7.52
2023-05-22T11:55:15.707Z,11.86
2023-05-22T11:56:15.587Z,21.04
2023-05-22T11:57:15.366Z,37.12
2023-05-22T11:58:15.364Z,47.05
2023-05-22T11:59:15.029Z,39.53
2023-05-22T12:00:14.941Z,41.99
2023-05-22T12:01:14.722Z,44.22
2023-05-22T12:02:14.744Z,27.55
2023-05-22T12:03:14.420Z,27.60
2023-05-22T12:04:14.262Z,27.05
2023-05-22T12:05:14.008Z,22.91
2023-05-22T12:06:16.429Z,28.31
2023-05-22T12:07:13.744Z,28.74
2023-05-22T12:08:13.764Z,28.95
2023-05-22T12:09:13.401Z,24.71
2023-05-22T12:10:13.940Z,25.96
2023-05-22T12:11:28.704Z,45.99
2023-05-22T12:12:13.272Z,29.33
2023-05-22T12:13:15.997Z,32.60
2023-05-22T12:14:12.800Z,29.54
2023-05-22T12:15:12.502Z,29.77
2023-05-22T12:16:12.493Z,23.59
2023-05-22T12:17:12.229Z,22.17
2023-05-22T12:18:12.107Z,21.18
2023-05-22T12:19:12.318Z,24.92
2023-05-22T12:20:11.772Z,21.12
2023-05-22T12:21:11.610Z,22.54
2023-05-22T12:22:11.560Z,21.73
2023-05-22T12:23:11.309Z,36.48
2023-05-22T12:24:11.250Z,21.95
2023-05-22T12:25:11.083Z,13.06
2023-05-22T12:26:10.899Z,7.63
2023-05-22T12:27:10.915Z,19.90
2023-05-22T12:28:10.628Z,18.89
2023-05-22T12:29:10.740Z,16.21
2023-05-22T12:30:10.556Z,17.62
2023-05-22T12:31:10.285Z,18.46
2023-05-22T12:32:10.085Z,26.05
2023-05-22T12:33:10.283Z,40.12
2023-05-22T12:34:09.814Z,47.24
2023-05-22T12:35:09.664Z,57.36
2023-05-22T12:36:09.524Z,34.30
2023-05-22T12:37:09.396Z,31.44
2023-05-22T12:38:09.751Z,51.74
2023-05-22T12:39:09.165Z,79.87
2023-05-22T12:40:08.968Z,97.92
2023-05-22T12:41:08.875Z,82.84
2023-05-22T12:42:08.818Z,53.20
2023-05-22T12:43:08.570Z,88.12
2023-05-22T12:48:05.354Z,25.00
2023-05-22T12:49:06.282Z,25.00
2023-05-22T12:50:06.204Z,25.00
2023-05-22T12:51:06.212Z,25.00
2023-05-22T12:52:06.212Z,25.00